William R Fairchild International Airport
KCLM : now visible

Airfield :











YOU CAN JOIN US ON...

 
LOGIN :

Register | Disclaimer

   EN    FR    IT 

 









Legend :    VFR   Marginal VFR   IFR   Intensive IFR   Very Intensive IFR
Visi :
Ceiling :
>= 8 km
>= 3000ft
5 to 8 km
1000 to 3000 ft
1500m to 5 km
500 to 1000 ft
800 to 1500m
200 to 500 ft
< 800m
< 200 ft
Symbols :   Thunderstorms  Fog  Heavy snow  Heavy precipitations  Wind > 20 kt






- Airport Elevation : 291 ft
- IATA code : CLM


KCLM - William R Fairchild International

CURRENT METAR :
  • 230753Z AUTO 29008KT 10SM CLR 14/08 A3021 RMK AO2 SLP228 T01390083 401890133

EXPIRED METARs :
  • 230653Z AUTO 28010G19KT 10SM CLR 15/08 A3018 RMK AO2 SLP221 T01500083
  • 230553Z AUTO 27008KT 10SM CLR 14/09 A3017 RMK AO2 SLP217 T01440094 10183 20133 50005
  • 230453Z AUTO 25008KT 10SM CLR 14/10 A3017 RMK AO2 SLP217 T01440100
  • 230353Z AUTO 29008G16KT 10SM CLR 15/10 A3016 RMK AO2 SLP213 T01500100
  • 230253Z AUTO 29013G23KT 10SM CLR 16/11 A3015 RMK AO2 SLP211 T01610106 58001

TAF KCLM
Valid from the 23 at 06:00 until the 24 at 06:00 UTC


230554Z 2306/2406 25008KT P6SM SKC
FM230900 27010KT P6SM SCT040
FM231400 27005KT P6SM SCT040
FM232100 31012G20KT P6SM SKC
KZSE FIR / North America



MET'MAP, your aeronautical weather chart ! - Copyright ORBIFLY December 2007 - Disclaimer

ORBIFLY MET'MAP TEAM :

Programming & Development : Alexandra Zaïnal
Original concept : Baudouin d'Aumeries
Technical & hardware support : Manuel Goepfert
Assistance : Marc-Olivier Méhu




SOURCES & CREDITS :

   NOAA       Earth
Advisory